หน้าหลัก
METAR-TAF:

METAR-TAF

ท่าอากาศยาน :

อะบูซิมเบล, อียิปต์

ละติจูด: 22-22-33N, ลองจิจูด: 31-36-42E, ความสูง: 188 ม.

การสังเกตสภาพอากาศปัจจุบัน

รายงานได้ทำขึ้นเมื่อ 34 นาทีที่แล้ว ณ เวลา 23:00 UTC
ลม 10 นอตจากเหนือ
อุณหภูมิ 33°C
ความชื้น 17%
ความกดอากาศ 1009 hPa
ทัศนวิสัย 10 กม. หรือมากกว่า
ไม่มีเมฆต่ำกว่า 1,500 ม. และไม่มีเมฆคิวมูโลนิมบัส

METAR: HEBL 242300Z 36010KT CAVOK 33/05 Q1009 NOSIG

เวลา: 01:34 (23:34 UTC)

การพยากรณ์

รายงานได้ทำขึ้นเมื่อ 6 ชั่วโมงและ 34 นาทีที่แล้ว ณ เวลา 17:00 UTC
การพยากรณ์มีผลตั้งแต่วันที่ 24 ณ เวลา 18 UTC จนถึงวันที่ 25 ณ เวลา 24 UTC
ลม 10 นอตจากเหนือ/ตะวันตกเฉียงเหนือโดยมีลมกระโชกได้ถึง20 นอต
ทัศนวิสัย 10 กม. หรือมากกว่า
ไม่มีเมฆต่ำกว่า 1,500 ม. และไม่มีเมฆคิวมูโลนิมบัส
ชั่วคราว
ตั้งแต่วันที่ 24 ณ เวลา 18 UTC จนถึงวันที่ 25 ณ เวลา 03 UTC
ทัศนวิสัย: 4000 ม.
ทราย,

TAF: HEBL 241700Z 2418/2524 34010G20KT CAVOK TEMPO 2418/2503 4000 SA NSC

สังเกตการณ์สภาพอากาศและพยากรณ์อากาศของสนามบินมากกว่า 4000 แห่ง (รายงาน METAR และ TAF).

สถานีที่ดูได้จะแสดงไว้ด้วยจุดสีเหลืองและสีแดงบนแผนที่.

เลื่อนเมาส์ไปเหนือจุดเพื่อดูชื่อสถานี.

แล้วคลิกเพื่อดูสังเกตการณ์และการพยากรณ์สภาพอากาศ.

ในการเปลี่ยนแผนที่: คลิกที่ปุ่มสีเขียวที่มีกากบาทสีดำเพื่อซูมเข้า; ที่ปุ่มสีเขียวที่มีขีดเพื่อซูมออก; หรือที่ลูกศรสีเขียวเพื่อไปยังแผนที่ที่อยู่ติดกัน.


METAR-TAF: